Flight Track Log - Related Links

Times and Time Zones

All times are in EDT time to prevent confusion due to time zone crossing. See the SWA1046 flight status page for this flight to view local times or setup timezone preferences in your user account.

Time Position Orientation Groundspeed Altitude Reporting Facility
EDT Latitude Longitude Course Direction KTS MPH feet Rate Location/Type
Fri 04:42:08 PM 32.8333 -96.7500 52° Northeast 281 323 4,800  Level Dallas / Fort Worth TRACON
Fri 04:43:08 PM 32.9167 -96.7333 10° North 322 371 7,500 2,199 Climbing Dallas / Fort Worth TRACON
Fri 04:45:19 PM 33.0431 -96.8508 322° Northwest 283 326 11,800 2,105 Climbing Fort Worth Center
Fri 04:46:19 PM 33.0892 -96.9447 300° West 315 362 14,200 2,900 Climbing Fort Worth Center
Fri 04:47:19 PM 33.1856 -96.9914 338° Northwest 357 411 17,600 3,350 Climbing Fort Worth Center
Fri 04:48:19 PM 33.2900 -97.0133 350° North 371 427 20,900 2,700 Climbing Fort Worth Center
Fri 04:49:19 PM 33.3964 -97.0278 354° North 389 448 23,000 1,050 Climbing Fort Worth Center
Fri 04:50:19 PM 33.4925 -97.0472 350° North 389 448 23,000  Level Fort Worth Center
Fri 04:51:19 PM 33.6053 -97.0644 353° North 384 442 23,000  Level Fort Worth Center
Fri 04:52:19 PM 33.7014 -97.0814 352° North 384 442 23,000  Level Fort Worth Center
Fri 04:53:19 PM 33.8161 -97.0983 353° North 384 442 23,000  Level Fort Worth Center
Fri 04:54:19 PM 33.9247 -97.1206 350° North 391 450 23,000  Level Fort Worth Center
Fri 04:55:19 PM 34.0333 -97.1378 353° North 391 450 23,000  Level Fort Worth Center
Fri 04:56:19 PM 34.1231 -97.1550 351° North 386 444 23,000  Level Fort Worth Center
Fri 04:57:19 PM 34.2317 -97.1722 353° North 381 438 23,000  Level Fort Worth Center
Fri 04:58:19 PM 34.3358 -97.1922 351° North 381 438 23,000  Level Fort Worth Center
Fri 04:59:19 PM 34.4444 -97.2094 353° North 386 444 23,000 -550 Level Fort Worth Center
Fri 05:00:19 PM 34.5489 -97.2294 351° North 391 450 21,900  Descending Fort Worth Center
Fri 05:01:19 PM 34.6511 -97.2469 352° North 386 444 23,000 -1,895 Climbing Fort Worth Center
Fri 05:01:35 PM 34.6928 -97.2544 352° North 366 421 19,500 -6,300 Descending Fort Worth Center
Fri 05:01:59 PM 34.7325 -97.2594 354° North 365 420 18,800 -1,500 Descending Fort Worth Center
Fri 05:02:19 PM 34.7533 -97.2619 354° North 374 430 18,400 -1,745 Descending Fort Worth Center
Fri 05:02:54 PM 34.8242 -97.2744 352° North 362 417 17,200 -1,700 Descending Fort Worth Center
Fri 05:03:19 PM 34.8533 -97.2769 356° North 369 425 16,700 -1,889 Descending Fort Worth Center
Fri 05:03:48 PM 34.9139 -97.2869 352° North 358 412 15,500 -1,800 Descending Fort Worth Center
Fri 05:04:19 PM 34.9514 -97.2919 354° North 364 419 14,900 -1,475 Descending Fort Worth Center
Fri 05:04:49 PM 35.0119 -97.3019 352° North 353 406 14,000 -1,500 Descending Fort Worth Center
Fri 05:05:19 PM 35.0475 -97.3044 357° North 359 413 13,400 -1,967 Descending Fort Worth Center
Fri 05:05:50 PM 35.1058 -97.3144 352° North 340 391 12,000 -2,100 Descending Fort Worth Center
Fri 05:06:19 PM 35.1433 -97.3197 353° North 349 402 11,300 -1,600 Descending Fort Worth Center
Fri 05:06:50 PM 35.1997 -97.3322 350° North 341 392 10,400 -1,200 Descending Fort Worth Center
Fri 05:07:19 PM 35.2353 -97.3400 350° North 349 402 10,100 -1,254 Descending Fort Worth Center
Fri 05:07:57 PM 35.2936 -97.3678 339° North 297 342 9,000 -1,400 Descending Fort Worth Center
Fri 05:08:19 PM 35.3122 -97.3728 348° North 316 364 8,700 -1,574 Descending Fort Worth Center
Fri 05:08:58 PM 35.3686 -97.3983 340° North 283 326 7,400 -1,800 Descending Fort Worth Center
Fri 05:09:19 PM 35.3875 -97.4086 336° Northwest 300 345 6,900 -1,800 Descending Fort Worth Center
Fri 05:09:58 PM 35.4439 -97.4339 340° North 286 329 5,600 -1,600 Descending Fort Worth Center
Fri 05:10:19 PM 35.4647 -97.4442 338° Northwest 295 339 5,300 -787 Descending Fort Worth Center
Fri 05:10:59 PM 35.5125 -97.4672 339° North 257 296 4,800 -700 Descending Fort Worth Center
Fri 05:11:19 PM 35.5333 -97.4825 329° Northwest 274 315 4,600 -716 Descending Fort Worth Center
Fri 05:12:06 PM 35.5292 -97.5436 265° West 204 235 4,000 -897 Descending Fort Worth Center
Fri 05:13:06 PM 35.5042 -97.5844 233° Southwest 175 201 3,000 -756 Descending Fort Worth Center
Fri 05:14:13 PM 35.4561 -97.5919 187° South 138 159 2,400 -656 Descending Fort Worth Center
Fri 05:15:14 PM 35.4164 -97.5919 180° South 128 147 1,600 -524 Descending Fort Worth Center
Fri 05:16:19 PM 35.3831 -97.5994 190° South 130 150 1,300 -277 Descending Fort Worth Center

Login

Don't have an account? Register now (free) for customized features, flight alerts, and more!